createdAt,value
2023-04-11T00:01:49.688Z,99419.88
2023-04-11T00:04:17.827Z,99411.28
2023-04-11T00:06:44.737Z,99415.41
2023-04-11T00:09:12.290Z,99407.25
2023-04-11T00:11:39.014Z,99400.78
2023-04-11T00:14:06.866Z,99397.66
2023-04-11T00:16:34.014Z,99394.31
2023-04-11T00:19:02.635Z,99390.00
2023-04-11T00:21:29.329Z,99382.59
2023-04-11T00:23:57.568Z,99378.69
2023-04-11T00:26:24.193Z,99375.41
2023-04-11T00:28:52.173Z,99376.31
2023-04-11T00:31:18.899Z,99367.09
2023-04-11T00:33:46.022Z,99350.84
2023-04-11T00:36:12.691Z,99352.78
2023-04-11T00:38:39.336Z,99348.81
2023-04-11T00:41:07.610Z,99340.91
2023-04-11T00:43:34.641Z,99334.47
2023-04-11T00:46:02.468Z,99324.88
2023-04-11T00:48:29.541Z,99325.78
2023-04-11T00:50:56.349Z,99313.66
2023-04-11T00:53:24.251Z,99309.56
2023-04-11T00:55:51.543Z,99308.59
2023-04-11T00:58:19.870Z,99309.06
2023-04-11T01:00:49.932Z,99311.34
2023-04-11T01:03:18.658Z,99306.53
2023-04-11T01:05:48.640Z,99296.22
2023-04-11T01:08:16.522Z,99295.25
2023-04-11T01:10:43.254Z,99293.13
2023-04-11T01:13:11.773Z,99293.00
2023-04-11T01:15:38.609Z,99285.94
2023-04-11T01:18:06.013Z,99290.13
2023-04-11T01:20:33.482Z,99286.22
2023-04-11T01:23:02.577Z,99283.13
2023-04-11T01:25:30.605Z,99278.44
2023-04-11T01:27:57.242Z,99279.19
2023-04-11T01:30:23.912Z,99276.41
2023-04-11T01:32:52.070Z,99266.31
2023-04-11T01:35:19.182Z,99264.94
2023-04-11T01:37:47.374Z,99268.09
2023-04-11T01:40:17.904Z,99262.22
2023-04-11T01:42:46.924Z,99259.66
2023-04-11T01:45:13.694Z,99264.38
2023-04-11T01:47:42.098Z,99257.59
2023-04-11T01:50:09.121Z,99244.78
2023-04-11T01:52:37.146Z,99245.44
2023-04-11T01:55:04.455Z,99245.59
2023-04-11T01:57:31.223Z,99237.56
2023-04-11T01:59:57.992Z,99237.47
2023-04-11T02:02:26.004Z,99235.44
2023-04-11T02:04:53.297Z,99234.03
2023-04-11T02:07:21.020Z,99233.38
2023-04-11T02:09:47.690Z,99229.53
2023-04-11T02:12:15.631Z,99220.28
2023-04-11T02:14:44.145Z,99216.28
2023-04-11T02:17:12.655Z,99211.09
2023-04-11T02:19:45.422Z,99210.94
2023-04-11T02:22:14.459Z,99204.22
2023-04-11T02:24:41.834Z,99203.84
2023-04-11T02:27:09.393Z,99206.91
2023-04-11T02:29:36.005Z,99194.03
2023-04-11T02:32:02.809Z,99192.97
2023-04-11T02:34:30.661Z,99179.19
2023-04-11T02:36:57.267Z,99185.44
2023-04-11T02:39:24.331Z,99180.47
2023-04-11T02:41:51.407Z,99165.06
2023-04-11T02:44:19.459Z,99164.03
2023-04-11T02:46:46.269Z,99163.00
2023-04-11T02:49:12.892Z,99161.75
2023-04-11T02:51:39.498Z,99158.09
2023-04-11T02:54:07.774Z,99152.00
2023-04-11T02:56:38.871Z,99143.09
2023-04-11T02:59:07.000Z,99139.56
2023-04-11T03:01:33.908Z,99141.19
2023-04-11T03:04:01.154Z,99127.78
2023-04-11T03:06:30.693Z,99135.72
2023-04-11T03:08:57.494Z,99126.94
2023-04-11T03:11:24.354Z,99115.31
2023-04-11T03:13:51.064Z,99109.09
2023-04-11T03:16:17.812Z,99107.38
2023-04-11T03:18:44.473Z,99102.13
2023-04-11T03:21:11.670Z,99097.53
2023-04-11T03:23:38.959Z,99102.50
2023-04-11T03:26:08.481Z,99092.75
2023-04-11T03:28:35.286Z,99094.00
2023-04-11T03:31:02.109Z,99091.19
2023-04-11T03:33:28.777Z,99079.59
2023-04-11T03:35:55.537Z,99083.50
2023-04-11T03:38:22.193Z,99081.31
2023-04-11T03:40:50.595Z,99073.97
2023-04-11T03:43:18.646Z,99075.22
2023-04-11T03:45:45.328Z,99074.84
2023-04-11T03:48:13.352Z,99068.81
2023-04-11T03:50:40.191Z,99059.63
2023-04-11T03:53:08.411Z,99058.53
2023-04-11T03:55:35.174Z,99053.59
2023-04-11T03:58:03.156Z,99057.41
2023-04-11T04:00:31.092Z,99058.31
2023-04-11T04:02:57.874Z,99050.38
2023-04-11T04:05:25.944Z,99055.22
2023-04-11T04:07:54.068Z,99055.41
2023-04-11T04:10:22.408Z,99051.47
2023-04-11T04:12:49.033Z,99045.63
2023-04-11T04:15:15.957Z,99042.09
2023-04-11T04:17:42.670Z,99043.00
2023-04-11T04:20:11.000Z,99044.06
2023-04-11T04:22:38.118Z,99032.47
2023-04-11T04:25:06.636Z,99036.34
2023-04-11T04:27:33.344Z,99025.34
2023-04-11T04:30:04.086Z,99023.41
2023-04-11T04:32:31.362Z,99021.22
2023-04-11T04:34:58.806Z,99022.22
2023-04-11T04:37:28.756Z,99020.78
2023-04-11T04:40:07.901Z,99023.91
2023-04-11T04:42:36.725Z,99023.84
2023-04-11T04:45:03.522Z,99021.34
2023-04-11T04:47:33.977Z,99019.66
2023-04-11T04:50:00.693Z,99014.25
2023-04-11T04:52:28.958Z,99014.41
2023-04-11T04:54:58.131Z,99015.47
2023-04-11T04:57:25.940Z,99012.22
2023-04-11T04:59:52.884Z,99002.69
2023-04-11T05:02:19.630Z,98999.25
2023-04-11T05:04:46.327Z,98994.41
2023-04-11T05:07:14.572Z,98996.91
2023-04-11T05:09:41.410Z,99002.59
2023-04-11T05:12:08.846Z,99000.13
2023-04-11T05:14:36.860Z,98987.56
2023-04-11T05:17:03.589Z,98986.91
2023-04-11T05:19:31.534Z,98979.91
2023-04-11T05:21:59.442Z,98985.81
2023-04-11T05:24:28.132Z,98978.84
2023-04-11T05:26:55.950Z,98974.44
2023-04-11T05:29:22.583Z,98979.75
2023-04-11T05:31:50.668Z,98979.50
2023-04-11T05:34:17.290Z,98976.94
2023-04-11T05:36:46.428Z,98982.81
2023-04-11T05:39:13.395Z,98980.66
2023-04-11T05:41:40.277Z,98984.47
2023-04-11T05:44:08.836Z,98989.31
2023-04-11T05:46:40.505Z,98990.91
2023-04-11T05:49:07.735Z,98988.28
2023-04-11T05:51:34.339Z,98991.50
2023-04-11T05:54:02.227Z,98994.16
2023-04-11T05:56:30.241Z,98995.75
2023-04-11T05:58:56.920Z,98984.53
2023-04-11T06:01:23.961Z,98995.25
2023-04-11T06:03:51.234Z,98989.34
2023-04-11T06:06:18.393Z,98993.13
2023-04-11T06:08:45.121Z,98986.69
2023-04-11T06:11:11.746Z,98983.47
2023-04-11T06:13:38.388Z,98982.41
2023-04-11T06:16:06.690Z,98980.50
2023-04-11T06:18:33.417Z,98984.53
2023-04-11T06:21:00.016Z,98979.19
2023-04-11T06:23:28.087Z,98970.84
2023-04-11T06:25:54.783Z,98984.78
2023-04-11T06:28:21.410Z,98983.41
2023-04-11T06:30:49.393Z,98987.63
2023-04-11T06:33:16.168Z,98996.75
2023-04-11T06:35:44.257Z,98995.94
2023-04-11T06:38:10.877Z,99000.38
2023-04-11T06:40:37.496Z,98988.56
2023-04-11T06:43:05.414Z,98984.78
2023-04-11T06:45:32.047Z,98988.94
2023-04-11T06:47:58.747Z,98986.78
2023-04-11T06:50:25.416Z,98985.97
2023-04-11T06:52:52.089Z,98982.78
2023-04-11T06:55:18.738Z,98985.50
2023-04-11T06:57:45.367Z,98983.59
2023-04-11T07:00:14.783Z,98976.34
2023-04-11T07:02:41.863Z,98982.59
2023-04-11T07:05:10.291Z,98983.59
2023-04-11T07:07:37.490Z,98978.25
2023-04-11T07:10:05.387Z,98986.69
2023-04-11T07:12:32.010Z,98994.38
2023-04-11T07:14:58.794Z,98978.84
2023-04-11T07:17:26.989Z,98985.31
2023-04-11T07:19:54.814Z,98983.59
2023-04-11T07:22:21.781Z,98984.59
2023-04-11T07:24:51.911Z,98979.25
2023-04-11T07:27:18.930Z,98973.34
2023-04-11T07:29:45.803Z,98972.06
2023-04-11T07:32:12.433Z,98972.06
2023-04-11T07:34:40.340Z,98963.69
2023-04-11T07:37:07.185Z,98970.75
2023-04-11T07:39:35.239Z,98973.28
2023-04-11T07:42:02.557Z,98974.84
2023-04-11T07:44:29.200Z,98964.84
2023-04-11T07:46:55.963Z,98963.03
2023-04-11T07:49:22.698Z,98970.56
2023-04-11T07:51:49.306Z,98963.44
2023-04-11T07:54:17.937Z,98961.75
2023-04-11T07:56:46.777Z,98960.78
2023-04-11T07:59:16.044Z,98955.50
2023-04-11T08:01:42.945Z,98954.69
2023-04-11T08:04:11.696Z,98958.97
2023-04-11T08:06:38.651Z,98952.03
2023-04-11T08:09:07.104Z,98951.81
2023-04-11T08:11:34.081Z,98956.22
2023-04-11T08:14:00.890Z,98946.75
2023-04-11T08:16:27.597Z,98948.94
2023-04-11T08:18:54.245Z,98949.09
2023-04-11T08:21:23.660Z,98950.44
2023-04-11T08:23:53.423Z,98940.91
2023-04-11T08:26:21.086Z,98939.44
2023-04-11T08:28:47.801Z,98925.22
2023-04-11T08:31:14.678Z,98932.25
2023-04-11T08:33:42.834Z,98925.00
2023-04-11T08:36:10.566Z,98920.91
2023-04-11T08:38:38.711Z,98929.81
2023-04-11T08:41:06.065Z,98914.94
2023-04-11T08:43:34.160Z,98918.66
2023-04-11T08:46:05.407Z,98918.63
2023-04-11T08:48:32.464Z,98918.00
2023-04-11T08:50:59.330Z,98916.63
2023-04-11T08:53:27.961Z,98903.75
2023-04-11T08:55:54.941Z,98899.13
2023-04-11T08:58:21.620Z,98893.91
2023-04-11T09:00:48.326Z,98890.78
2023-04-11T09:03:17.424Z,98893.63
2023-04-11T09:05:46.807Z,98876.28
2023-04-11T09:08:17.224Z,98887.81
2023-04-11T09:10:45.673Z,98877.00
2023-04-11T09:13:26.495Z,98870.44
2023-04-11T09:16:10.660Z,98882.06
2023-04-11T09:18:39.488Z,98881.66
2023-04-11T09:21:10.475Z,98871.47
2023-04-11T09:23:37.473Z,98859.88
2023-04-11T09:26:10.624Z,98857.66
2023-04-11T09:28:53.448Z,98851.22
2023-04-11T09:31:22.866Z,98847.94
2023-04-11T09:33:54.629Z,98842.00
2023-04-11T09:36:24.331Z,98843.47
2023-04-11T09:38:51.858Z,98837.72
2023-04-11T09:41:32.093Z,98841.56
2023-04-11T09:43:59.398Z,98829.81
2023-04-11T09:46:26.256Z,98837.72
2023-04-11T09:48:55.957Z,98835.25
2023-04-11T09:53:55.358Z,98844.75
2023-04-11T09:56:24.195Z,98833.97
2023-04-11T09:58:52.105Z,98832.91
2023-04-11T10:01:20.379Z,98825.63
2023-04-11T10:03:52.376Z,98816.50
2023-04-11T10:06:31.979Z,98824.31
2023-04-11T10:09:10.935Z,98814.13
2023-04-11T10:11:42.010Z,98810.13
2023-04-11T10:14:08.708Z,98809.53
2023-04-11T10:16:35.540Z,98810.75
2023-04-11T10:19:02.288Z,98806.47
2023-04-11T10:21:36.372Z,98804.34
2023-04-11T10:24:22.128Z,98799.56
2023-04-11T10:26:56.774Z,98815.38
2023-04-11T10:29:40.925Z,98808.09
2023-04-11T10:32:13.801Z,98817.69
2023-04-11T10:35:00.534Z,98816.88
2023-04-11T10:37:29.863Z,98814.53
2023-04-11T10:40:02.256Z,98813.63
2023-04-11T10:42:29.412Z,98803.59
2023-04-11T10:45:24.675Z,98808.63
2023-04-11T10:47:57.182Z,98810.03
2023-04-11T10:50:24.053Z,98793.75
2023-04-11T10:52:51.097Z,98804.44
2023-04-11T10:55:18.605Z,98806.03
2023-04-11T10:58:03.815Z,98802.19
2023-04-11T11:00:32.694Z,98790.03
2023-04-11T11:03:02.198Z,98785.63
2023-04-11T11:05:28.967Z,98779.56
2023-04-11T11:07:55.609Z,98769.44
2023-04-11T11:10:36.172Z,98768.44
2023-04-11T11:13:03.926Z,98772.50
2023-04-11T11:15:36.612Z,98766.72
2023-04-11T11:18:15.739Z,98764.25
2023-04-11T11:20:42.582Z,98750.81
2023-04-11T11:23:11.720Z,98760.31
2023-04-11T11:25:38.382Z,98754.53
2023-04-11T11:28:10.651Z,98746.03
2023-04-11T11:30:37.981Z,98755.06
2023-04-11T11:33:20.027Z,98749.75
2023-04-11T11:35:55.838Z,98742.19
2023-04-11T11:38:27.126Z,98743.69
2023-04-11T11:40:54.833Z,98740.75
2023-04-11T11:43:21.843Z,98742.09
2023-04-11T11:46:08.491Z,98748.03
2023-04-11T11:48:35.610Z,98738.91
2023-04-11T11:51:03.548Z,98741.16
2023-04-11T11:53:30.476Z,98738.50
2023-04-11T11:55:57.720Z,98746.34
2023-04-11T11:58:24.778Z,98744.50
2023-04-11T12:00:52.103Z,98733.97
2023-04-11T12:03:26.795Z,98732.13
2023-04-11T12:05:56.841Z,98729.16
2023-04-11T12:08:25.799Z,98729.75
2023-04-11T12:10:53.754Z,98731.09
2023-04-11T12:13:23.488Z,98731.88
2023-04-11T12:15:57.636Z,98730.22
2023-04-11T12:18:25.377Z,98720.75
2023-04-11T12:20:52.524Z,98713.59
2023-04-11T12:23:19.466Z,98710.00
2023-04-11T12:25:48.066Z,98715.50
2023-04-11T12:28:16.254Z,98708.81
2023-04-11T12:30:42.858Z,98708.03
2023-04-11T12:33:09.564Z,98712.00
2023-04-11T12:35:36.279Z,98714.03
2023-04-11T12:38:04.200Z,98707.66
2023-04-11T12:40:32.236Z,98711.63
2023-04-11T12:42:58.838Z,98709.16
2023-04-11T12:45:26.225Z,98704.25
2023-04-11T12:47:53.669Z,98694.63
2023-04-11T12:50:23.055Z,98705.97
2023-04-11T12:52:50.760Z,98697.13
2023-04-11T12:55:17.491Z,98696.44
2023-04-11T12:57:45.299Z,98698.03
2023-04-11T13:00:13.037Z,98702.13
2023-04-11T13:02:44.023Z,98691.91
2023-04-11T13:05:14.802Z,98694.28
2023-04-11T13:07:45.007Z,98687.59
2023-04-11T13:10:13.850Z,98683.94
2023-04-11T13:12:43.862Z,98684.63
2023-04-11T13:15:12.250Z,98675.88
2023-04-11T13:17:39.486Z,98680.53
2023-04-11T13:20:10.729Z,98680.47
2023-04-11T13:22:38.747Z,98684.72
2023-04-11T13:25:06.882Z,98678.69
2023-04-11T13:27:34.140Z,98673.31
2023-04-11T13:30:00.875Z,98671.31
2023-04-11T13:32:27.814Z,98673.13
2023-04-11T13:34:54.423Z,98669.97
2023-04-11T13:37:22.068Z,98665.66
2023-04-11T13:39:50.100Z,98659.72
2023-04-11T13:42:16.691Z,98657.22
2023-04-11T13:44:43.439Z,98660.63
2023-04-11T13:47:10.071Z,98658.00
2023-04-11T13:49:36.733Z,98656.06
2023-04-11T13:52:03.341Z,98660.69
2023-04-11T13:54:31.613Z,98667.03
2023-04-11T13:56:59.319Z,98656.31
2023-04-11T13:59:28.575Z,98652.41
2023-04-11T14:01:55.223Z,98649.78
2023-04-11T14:04:22.602Z,98662.63
2023-04-11T14:06:50.746Z,98647.22
2023-04-11T14:09:17.665Z,98647.13
2023-04-11T14:11:45.721Z,98648.53
2023-04-11T14:14:12.338Z,98638.97
2023-04-11T14:16:38.947Z,98628.91
2023-04-11T14:19:07.210Z,98624.84
2023-04-11T14:21:35.339Z,98630.69
2023-04-11T14:24:02.363Z,98630.41
2023-04-11T14:26:29.083Z,98626.53
2023-04-11T14:28:56.900Z,98625.94
2023-04-11T14:31:24.069Z,98620.47
2023-04-11T14:33:51.164Z,98622.50
2023-04-11T14:36:17.987Z,98616.69
2023-04-11T14:38:44.611Z,98620.47
2023-04-11T14:41:12.453Z,98619.06
2023-04-11T14:43:39.080Z,98606.69
2023-04-11T14:46:05.843Z,98605.41
2023-04-11T14:48:32.477Z,98599.53
2023-04-11T14:51:02.981Z,98609.88
2023-04-11T14:53:29.657Z,98609.69
2023-04-11T14:55:57.569Z,98607.94
2023-04-11T14:58:25.370Z,98602.31
2023-04-11T15:00:53.373Z,98612.06
2023-04-11T15:03:20.541Z,98611.56
2023-04-11T15:05:47.952Z,98604.16
2023-04-11T15:08:14.762Z,98618.03
2023-04-11T15:10:42.013Z,98612.22
2023-04-11T15:13:09.203Z,98613.13
2023-04-11T15:15:36.543Z,98622.13
2023-04-11T15:18:26.974Z,98608.22
2023-04-11T15:20:54.942Z,98616.22
2023-04-11T15:23:23.368Z,98613.13
2023-04-11T15:26:01.047Z,98616.03
2023-04-11T15:28:32.025Z,98611.53
2023-04-11T15:30:59.342Z,98605.69
2023-04-11T15:33:26.674Z,98604.94
2023-04-11T15:35:59.125Z,98607.16
2023-04-11T15:38:28.070Z,98614.66
2023-04-11T15:40:56.476Z,98608.22
2023-04-11T15:43:24.013Z,98607.66
2023-04-11T15:45:52.455Z,98616.28
2023-04-11T15:48:19.099Z,98612.09
2023-04-11T15:50:46.880Z,98607.66
2023-04-11T15:53:14.737Z,98603.81
2023-04-11T15:55:43.528Z,98607.16
2023-04-11T15:58:10.676Z,98605.84
2023-04-11T16:00:38.616Z,98599.94
2023-04-11T16:03:10.664Z,98605.84
2023-04-11T16:05:40.863Z,98608.25
2023-04-11T16:08:09.217Z,98599.97
2023-04-11T16:10:35.907Z,98600.88
2023-04-11T16:13:03.256Z,98599.28
2023-04-11T16:15:29.890Z,98597.34
2023-04-11T16:17:56.596Z,98592.72
2023-04-11T16:20:23.303Z,98592.38
2023-04-11T16:22:51.281Z,98593.72
2023-04-11T16:25:21.248Z,98592.38
2023-04-11T16:27:48.541Z,98593.41
2023-04-11T16:30:15.436Z,98584.34
2023-04-11T16:32:42.147Z,98595.88
2023-04-11T16:35:09.139Z,98590.22
2023-04-11T16:37:35.865Z,98590.88
2023-04-11T16:40:02.588Z,98593.84
2023-04-11T16:42:29.217Z,98593.16
2023-04-11T16:44:57.320Z,98596.09
2023-04-11T16:47:26.173Z,98596.91
2023-04-11T16:49:53.563Z,98604.72
2023-04-11T16:52:21.315Z,98603.09
2023-04-11T16:54:48.393Z,98596.44
2023-04-11T16:57:15.104Z,98590.59
2023-04-11T16:59:42.049Z,98596.84
2023-04-11T17:02:08.767Z,98591.94
2023-04-11T17:04:37.023Z,98586.81
2023-04-11T17:07:03.660Z,98584.28
2023-04-11T17:09:30.291Z,98583.78
2023-04-11T17:11:58.941Z,98590.13
2023-04-11T17:14:26.025Z,98586.13
2023-04-11T17:16:53.175Z,98584.34
2023-04-11T17:19:19.820Z,98582.44
2023-04-11T17:21:46.599Z,98577.53
2023-04-11T17:24:13.574Z,98579.91
2023-04-11T17:26:40.330Z,98582.50
2023-04-11T17:29:09.057Z,98594.09
2023-04-11T17:31:35.745Z,98594.78
2023-04-11T17:34:02.497Z,98580.34
2023-04-11T17:36:29.149Z,98592.38
2023-04-11T17:38:55.938Z,98579.41
2023-04-11T17:41:22.957Z,98584.91
2023-04-11T17:43:49.665Z,98590.28
2023-04-11T17:46:16.386Z,98587.94
2023-04-11T17:48:43.286Z,98586.56
2023-04-11T17:51:10.060Z,98582.97
2023-04-11T17:53:37.056Z,98566.97
2023-04-11T17:56:07.650Z,98584.75
2023-04-11T17:58:34.714Z,98579.41
2023-04-11T18:01:04.408Z,98583.31
2023-04-11T18:03:36.175Z,98592.53
2023-04-11T18:06:03.326Z,98583.25
2023-04-11T18:08:42.753Z,98589.34
2023-04-11T18:11:13.885Z,98593.59
2023-04-11T18:13:42.855Z,98584.66
2023-04-11T18:16:10.052Z,98591.88
2023-04-11T18:18:38.538Z,98586.16
2023-04-11T18:21:07.602Z,98590.09
2023-04-11T18:23:34.952Z,98588.50
2023-04-11T18:26:01.559Z,98579.53
2023-04-11T18:28:28.187Z,98586.94
2023-04-11T18:30:54.857Z,98593.59
2023-04-11T18:33:22.967Z,98589.47
2023-04-11T18:35:49.625Z,98588.88
2023-04-11T18:38:17.762Z,98589.88
2023-04-11T18:40:44.354Z,98588.81
2023-04-11T18:43:11.100Z,98590.88
2023-04-11T18:45:39.172Z,98604.25
2023-04-11T18:48:06.413Z,98594.97
2023-04-11T18:50:39.559Z,98606.09
2023-04-11T18:53:10.670Z,98594.91
2023-04-11T18:55:40.952Z,98594.63
2023-04-11T18:58:09.530Z,98601.75
2023-04-11T19:00:39.049Z,98600.44
2023-04-11T19:03:15.269Z,98604.75
2023-04-11T19:05:43.789Z,98601.66
2023-04-11T19:08:11.164Z,98601.09
2023-04-11T19:10:38.058Z,98602.63
2023-04-11T19:13:05.936Z,98614.59
2023-04-11T19:15:34.109Z,98603.06
2023-04-11T19:18:01.855Z,98611.34
2023-04-11T19:20:30.836Z,98605.97
2023-04-11T19:22:57.458Z,98612.13
2023-04-11T19:25:24.467Z,98610.09
2023-04-11T19:27:51.599Z,98623.16
2023-04-11T19:30:18.238Z,98626.63
2023-04-11T19:32:48.677Z,98617.22
2023-04-11T19:35:15.717Z,98615.47
2023-04-11T19:37:42.656Z,98615.97
2023-04-11T19:40:13.894Z,98608.97
2023-04-11T19:42:41.847Z,98617.41
2023-04-11T19:45:12.013Z,98617.31
2023-04-11T19:47:42.410Z,98612.88
2023-04-11T19:50:12.980Z,98611.44
2023-04-11T19:52:41.291Z,98603.69
2023-04-11T19:55:10.733Z,98588.59
2023-04-11T19:57:40.899Z,98590.22
2023-04-11T20:00:14.724Z,98587.50
2023-04-11T20:02:46.762Z,98560.91
2023-04-11T20:05:16.270Z,98565.38
2023-04-11T20:07:44.404Z,98569.44
2023-04-11T20:10:12.778Z,98567.84
2023-04-11T20:12:40.634Z,98573.88
2023-04-11T20:15:08.156Z,98573.41
2023-04-11T20:17:36.916Z,98566.53
2023-04-11T20:20:08.135Z,98577.03
2023-04-11T20:22:34.748Z,98577.88
2023-04-11T20:25:01.437Z,98566.09
2023-04-11T20:27:28.376Z,98567.44
2023-04-11T20:29:56.654Z,98573.25
2023-04-11T20:32:23.470Z,98567.78
2023-04-11T20:34:50.181Z,98564.91
2023-04-11T20:37:18.429Z,98560.78
2023-04-11T20:39:45.823Z,98549.75
2023-04-11T20:42:12.492Z,98546.38
2023-04-11T20:44:39.186Z,98563.25
2023-04-11T20:47:07.499Z,98556.50
2023-04-11T20:49:34.136Z,98550.69
2023-04-11T20:52:01.196Z,98550.25
2023-04-11T20:54:28.491Z,98554.03
2023-04-11T20:56:55.872Z,98539.16
2023-04-11T20:59:22.563Z,98551.69
2023-04-11T21:01:49.370Z,98542.94
2023-04-11T21:04:18.705Z,98538.53
2023-04-11T21:06:47.736Z,98543.59
2023-04-11T21:09:16.849Z,98538.16
2023-04-11T21:11:44.566Z,98522.66
2023-04-11T21:14:11.184Z,98513.69
2023-04-11T21:16:39.290Z,98515.66
2023-04-11T21:19:07.175Z,98510.28
2023-04-11T21:21:35.509Z,98519.81
2023-04-11T21:24:03.482Z,98520.88
2023-04-11T21:26:30.748Z,98520.19
2023-04-11T21:28:57.342Z,98516.47
2023-04-11T21:31:24.223Z,98520.50
2023-04-11T21:33:52.800Z,98518.47
2023-04-11T21:36:20.865Z,98522.28
2023-04-11T21:38:47.486Z,98533.16
2023-04-11T21:41:14.071Z,98529.06
2023-04-11T21:43:42.384Z,98542.22
2023-04-11T21:46:09.043Z,98533.31
2023-04-11T21:48:35.813Z,98524.59
2023-04-11T21:51:05.155Z,98502.66
2023-04-11T21:53:31.753Z,98511.84
2023-04-11T21:55:58.409Z,98509.00
2023-04-11T21:58:29.718Z,98512.78
2023-04-11T22:00:56.904Z,98514.44
2023-04-11T22:03:24.087Z,98514.69
2023-04-11T22:05:52.452Z,98515.09
2023-04-11T22:08:21.493Z,98501.13
2023-04-11T22:10:50.843Z,98494.41
2023-04-11T22:13:20.432Z,98483.03
2023-04-11T22:15:48.892Z,98491.69
2023-04-11T22:18:15.945Z,98499.19
2023-04-11T22:20:45.274Z,98498.69
2023-04-11T22:23:17.699Z,98488.25
2023-04-11T22:25:44.438Z,98501.59
2023-04-11T22:28:18.294Z,98508.06
2023-04-11T22:30:48.522Z,98494.59
2023-04-11T22:33:15.940Z,98489.41
2023-04-11T22:35:48.846Z,98500.63
2023-04-11T22:38:15.962Z,98496.53
2023-04-11T22:40:44.305Z,98506.88
2023-04-11T22:43:11.027Z,98515.59
2023-04-11T22:45:39.110Z,98508.47
2023-04-11T22:48:07.356Z,98502.44
2023-04-11T22:50:38.916Z,98516.56
2023-04-11T22:53:07.387Z,98506.72
2023-04-11T22:55:34.421Z,98505.03
2023-04-11T22:58:04.169Z,98500.69
2023-04-11T23:00:31.488Z,98500.84
2023-04-11T23:02:59.716Z,98512.50
2023-04-11T23:05:28.457Z,98518.66
2023-04-11T23:07:55.475Z,98505.47
2023-04-11T23:10:22.131Z,98507.91
2023-04-11T23:12:49.607Z,98521.84
2023-04-11T23:15:17.362Z,98514.00
2023-04-11T23:17:44.929Z,98505.19
2023-04-11T23:20:13.476Z,98513.94
2023-04-11T23:22:43.245Z,98520.69
2023-04-11T23:25:15.213Z,98517.41
2023-04-11T23:27:43.614Z,98520.88
2023-04-11T23:30:15.100Z,98511.66
2023-04-11T23:32:42.134Z,98507.22
2023-04-11T23:35:09.154Z,98509.56
2023-04-11T23:37:37.123Z,98516.22
2023-04-11T23:40:10.545Z,98511.84
2023-04-11T23:42:39.676Z,98507.97
2023-04-11T23:45:07.220Z,98505.06
2023-04-11T23:47:34.607Z,98499.09
2023-04-11T23:50:02.823Z,98514.53
2023-04-11T23:52:30.478Z,98513.38
2023-04-11T23:54:58.449Z,98528.22
2023-04-11T23:57:25.199Z,98521.69
2023-04-11T23:59:53.106Z,98512.75
